Time;durP1;ratioP1;P1;durP2;ratioP2;P2;SDS_P1;SDS_P2;PMS_P1;PMS_P2;Temp;Humidity;BMP_temperature;BMP_pressure;BME280_temperature;BME280_humidity;BME280_pressure;Samples;Min_cycle;Max_cycle;Signal;HPM_P1;HPM_P2
2022/08/27 00:00:43;;;;;;;12.95;11.60;;;;;;;20.57;100.00;98822.00;4979527;28;20235;-86
2022/08/27 00:03:10;;;;;;;13.13;11.88;;;;;;;20.47;100.00;98819.50;5001473;28;20250;-87
2022/08/27 00:05:37;;;;;;;12.95;11.65;;;;;;;20.45;100.00;98818.16;4977795;28;20275;-87
2022/08/27 00:08:05;;;;;;;13.60;11.20;;;;;;;20.43;100.00;98815.78;4962472;28;20362;-87
2022/08/27 00:10:32;;;;;;;12.20;11.15;;;;;;;20.42;100.00;98818.78;4973341;28;20238;-87
2022/08/27 00:13:00;;;;;;;13.37;11.67;;;;;;;20.40;100.00;98821.00;4958169;28;20318;-87
2022/08/27 00:15:27;;;;;;;12.95;11.68;;;;;;;20.40;100.00;98823.72;4955869;28;20314;-85
2022/08/27 00:17:54;;;;;;;13.43;12.13;;;;;;;20.35;100.00;98826.53;4999071;28;20254;-87
2022/08/27 00:20:23;;;;;;;13.00;11.60;;;;;;;20.34;100.00;98824.94;4981559;28;20307;-87
2022/08/27 00:22:51;;;;;;;12.40;11.30;;;;;;;20.29;100.00;98823.09;4968930;28;20240;-87
2022/08/27 00:25:18;;;;;;;13.75;12.32;;;;;;;20.30;100.00;98824.72;4984496;28;20258;-86
2022/08/27 00:27:45;;;;;;;13.43;12.07;;;;;;;20.27;100.00;98836.19;4995026;28;20717;-87
2022/08/27 00:30:15;;;;;;;12.87;11.73;;;;;;;20.26;100.00;98823.69;4992038;28;20689;-87
2022/08/27 00:32:42;;;;;;;12.88;11.57;;;;;;;20.23;100.00;98816.94;4986401;28;20777;-87
2022/08/27 00:35:08;;;;;;;13.20;11.90;;;;;;;20.29;100.00;98825.00;4996696;28;20693;-87
2022/08/27 00:37:36;;;;;;;13.50;11.27;;;;;;;20.25;100.00;98813.13;4970593;28;20251;-86
2022/08/27 00:40:06;;;;;;;13.27;11.88;;;;;;;20.24;100.00;98823.19;4967138;28;20256;-86
2022/08/27 00:42:32;;;;;;;12.83;11.60;;;;;;;20.21;100.00;98821.88;4970886;28;20232;-86
2022/08/27 00:44:59;;;;;;;13.13;11.83;;;;;;;20.16;100.00;98821.16;4985533;28;20737;-86
2022/08/27 00:47:28;;;;;;;13.90;11.27;;;;;;;20.13;100.00;98822.56;4984347;28;20241;-88
2022/08/27 00:49:58;;;;;;;12.82;11.52;;;;;;;20.07;100.00;98815.63;4976546;28;20242;-86
2022/08/27 00:52:30;;;;;;;12.93;11.70;;;;;;;20.12;100.00;98820.16;4977030;28;20241;-87
2022/08/27 00:55:06;;;;;;;13.17;11.83;;;;;;;20.04;100.00;98818.13;4971173;28;20241;-86
2022/08/27 00:57:38;;;;;;;12.40;11.23;;;;;;;19.99;100.00;98812.78;4972406;28;20748;-87
2022/08/27 01:00:14;;;;;;;13.17;11.30;;;;;;;19.96;100.00;98816.13;4985069;28;20232;-86
2022/08/27 01:02:42;;;;;;;12.43;11.07;;;;;;;19.89;100.00;98816.50;4976035;28;20235;-87
2022/08/27 01:05:11;;;;;;;12.55;11.32;;;;;;;19.86;100.00;98816.31;4965004;28;20239;-84
2022/08/27 01:07:40;;;;;;;13.10;11.80;;;;;;;19.86;100.00;98827.19;4974366;28;20353;-86
2022/08/27 01:10:10;;;;;;;13.30;11.73;;;;;;;19.80;100.00;98823.72;4948533;28;20274;-88
2022/08/27 01:12:37;;;;;;;12.43;11.27;;;;;;;19.78;100.00;98826.75;4997093;28;20891;-88
2022/08/27 01:15:07;;;;;;;14.80;12.07;;;;;;;19.76;100.00;98825.44;4991414;28;20240;-85
2022/08/27 01:17:38;;;;;;;13.33;11.83;;;;;;;19.73;100.00;98816.00;4988766;28;20243;-85
2022/08/27 01:20:08;;;;;;;13.40;12.00;;;;;;;19.71;100.00;98826.34;4960493;28;20229;-83
2022/08/27 01:22:50;;;;;;;13.13;11.93;;;;;;;19.64;100.00;98823.19;4975279;28;20250;-85
2022/08/27 01:25:17;;;;;;;13.57;11.50;;;;;;;19.59;100.00;98825.22;4977524;28;20236;-85
2022/08/27 01:27:45;;;;;;;14.07;11.83;;;;;;;19.57;100.00;98824.69;4949081;28;20721;-86
2022/08/27 01:30:15;;;;;;;13.60;11.50;;;;;;;19.56;100.00;98828.50;4961368;28;20229;-86
2022/08/27 01:32:43;;;;;;;13.40;12.03;;;;;;;19.54;100.00;98836.16;4971578;28;20244;-87
2022/08/27 01:35:11;;;;;;;12.40;11.20;;;;;;;19.53;100.00;98840.78;4946756;28;20794;-86
2022/08/27 01:37:40;;;;;;;12.20;11.10;;;;;;;19.51;100.00;98834.81;4974685;28;20232;-86
2022/08/27 01:40:08;;;;;;;12.40;11.20;;;;;;;19.54;100.00;98833.44;4996974;28;20294;-86
2022/08/27 01:42:42;;;;;;;12.03;10.93;;;;;;;19.51;100.00;98837.53;4974865;28;20226;-86
2022/08/27 01:45:16;;;;;;;12.60;11.00;;;;;;;19.51;100.00;98837.53;4960242;28;20312;-88
2022/08/27 01:47:43;;;;;;;12.50;11.30;;;;;;;19.50;100.00;98840.56;4964796;28;20246;-86
2022/08/27 01:50:16;;;;;;;11.77;10.57;;;;;;;19.50;100.00;98840.56;4943554;28;20235;-88
2022/08/27 01:52:43;;;;;;;11.53;10.43;;;;;;;19.46;100.00;98840.34;4962859;28;20245;-86
2022/08/27 01:55:13;;;;;;;11.30;10.30;;;;;;;19.45;100.00;98838.75;4947112;28;20251;-87
2022/08/27 01:57:40;;;;;;;11.50;10.37;;;;;;;19.45;100.00;98840.66;4942695;28;20220;-86
2022/08/27 02:00:11;;;;;;;11.70;10.50;;;;;;;19.44;100.00;98836.31;4964343;28;20245;-85
2022/08/27 02:02:39;;;;;;;11.73;10.63;;;;;;;19.43;100.00;98851.78;4957524;28;20320;-86
2022/08/27 02:05:06;;;;;;;11.33;10.10;;;;;;;19.38;100.00;98837.47;4975563;28;20617;-87
2022/08/27 02:07:32;;;;;;;11.00;10.00;;;;;;;19.37;100.00;98844.78;4948779;28;20326;-86
2022/08/27 02:09:59;;;;;;;10.70;9.80;;;;;;;19.35;100.00;98841.59;5004667;28;20322;-86
2022/08/27 02:12:26;;;;;;;10.67;9.33;;;;;;;19.33;100.00;98838.34;4963785;28;20241;-86
2022/08/27 02:14:52;;;;;;;10.67;9.60;;;;;;;19.29;100.00;98842.75;4983012;28;20270;-87
2022/08/27 02:17:19;;;;;;;10.60;9.50;;;;;;;19.27;100.00;98842.25;4970239;28;20321;-86
2022/08/27 02:19:46;;;;;;;10.63;9.63;;;;;;;19.22;100.00;98843.13;4952767;28;20326;-84
2022/08/27 02:22:12;;;;;;;9.97;9.07;;;;;;;19.23;100.00;98854.78;4998053;28;20230;-85
2022/08/27 02:24:40;;;;;;;10.77;9.77;;;;;;;19.18;100.00;98847.53;4994094;28;20321;-84
2022/08/27 02:27:08;;;;;;;10.43;9.53;;;;;;;19.20;100.00;98858.09;4994879;28;20252;-84
2022/08/27 02:29:35;;;;;;;9.97;9.07;;;;;;;19.18;100.00;98852.97;4979999;28;20785;-84
2022/08/27 02:32:01;;;;;;;11.00;9.83;;;;;;;19.15;100.00;98850.84;4967595;28;20329;-83
2022/08/27 02:34:28;;;;;;;11.20;10.13;;;;;;;19.11;100.00;98852.53;4990939;28;20236;-83
2022/08/27 02:36:56;;;;;;;11.03;9.87;;;;;;;19.09;100.00;98843.88;4959606;28;20325;-84
2022/08/27 02:39:22;;;;;;;11.33;10.10;;;;;;;19.05;100.00;98845.56;4977015;28;20329;-84
2022/08/27 02:41:49;;;;;;;10.53;9.43;;;;;;;19.05;100.00;98856.41;4977939;28;20238;-83
2022/08/27 02:44:16;;;;;;;10.63;9.63;;;;;;;19.01;100.00;98855.38;4989684;28;20238;-84
2022/08/27 02:46:42;;;;;;;11.30;10.20;;;;;;;18.98;100.00;98852.47;4972744;28;20332;-85
2022/08/27 02:49:09;;;;;;;12.07;10.40;;;;;;;18.97;100.00;98853.56;4990354;28;20236;-84
2022/08/27 02:51:36;;;;;;;11.80;10.40;;;;;;;18.89;100.00;98849.59;4973459;28;20257;-85
2022/08/27 02:54:04;;;;;;;11.73;10.57;;;;;;;18.89;100.00;98845.00;4958608;28;20267;-87
2022/08/27 02:56:35;;;;;;;11.37;10.40;;;;;;;18.88;100.00;98846.06;4945760;28;20242;-88
2022/08/27 02:59:01;;;;;;;11.53;10.47;;;;;;;18.86;100.00;98850.97;4988337;28;20232;-88
2022/08/27 03:01:28;;;;;;;11.67;10.57;;;;;;;18.82;100.00;98852.66;4949670;28;20253;-87
2022/08/27 03:03:56;;;;;;;11.70;10.63;;;;;;;18.80;100.00;98857.56;4962304;28;20278;-88
2022/08/27 03:06:23;;;;;;;11.70;10.53;;;;;;;18.74;100.00;98849.81;4971740;28;20320;-87
2022/08/27 03:08:49;;;;;;;11.50;10.30;;;;;;;18.66;100.00;98856.69;4966370;28;20291;-88
2022/08/27 03:11:21;;;;;;;11.37;10.27;;;;;;;18.66;100.00;98848.56;4976836;28;20229;-87
2022/08/27 03:13:49;;;;;;;11.60;10.60;;;;;;;18.66;100.00;98855.88;4972088;28;20266;-86
2022/08/27 03:16:15;;;;;;;11.70;10.50;;;;;;;18.63;100.00;98856.44;4948302;28;20686;-87
2022/08/27 03:18:43;;;;;;;11.80;10.63;;;;;;;18.56;100.00;98856.00;4948733;28;20261;-87
2022/08/27 03:21:18;;;;;;;11.27;10.27;;;;;;;18.54;100.00;98853.56;5002795;28;20314;-87
2022/08/27 03:23:47;;;;;;;11.67;10.57;;;;;;;18.49;100.00;98857.13;4960192;28;20236;-89
2022/08/27 03:26:14;;;;;;;11.87;10.67;;;;;;;18.48;100.00;98850.06;4958279;28;20652;-88
2022/08/27 03:28:40;;;;;;;11.17;10.10;;;;;;;18.51;100.00;98856.84;4952697;28;20231;-88
2022/08/27 03:31:13;;;;;;;12.10;10.90;;;;;;;18.53;100.00;98857.38;4983260;28;20244;-86
2022/08/27 03:33:42;;;;;;;12.23;11.03;;;;;;;18.49;100.00;98848.97;4966820;28;20254;-89
2022/08/27 03:36:08;;;;;;;11.57;10.47;;;;;;;18.48;100.00;98850.06;4972532;28;20242;-88
2022/08/27 03:38:35;;;;;;;11.60;10.50;;;;;;;18.46;100.00;98851.47;4984287;28;20246;-89
2022/08/27 03:41:03;;;;;;;11.90;10.83;;;;;;;18.44;100.00;98849.03;4988943;28;20318;-88
2022/08/27 03:43:30;;;;;;;12.47;11.20;;;;;;;18.41;100.00;98856.97;4966697;28;20243;-89
2022/08/27 03:45:56;;;;;;;12.43;11.27;;;;;;;18.37;100.00;98847.78;4948772;28;20326;-86
2022/08/27 03:48:31;;;;;;;11.53;10.53;;;;;;;18.34;100.00;98868.13;4971040;28;20236;-88
2022/08/27 03:50:58;;;;;;;11.90;10.80;;;;;;;18.30;100.00;98852.72;4981291;28;20268;-89
2022/08/27 03:53:25;;;;;;;11.13;10.23;;;;;;;18.22;100.00;98851.47;4998198;28;20764;-90
2022/08/27 03:55:52;;;;;;;12.93;11.30;;;;;;;18.23;100.00;98852.28;4981083;28;20679;-89
2022/08/27 03:58:19;;;;;;;11.77;10.70;;;;;;;18.18;100.00;98855.06;4997094;28;20236;-89
2022/08/27 04:00:45;;;;;;;11.83;10.73;;;;;;;18.17;100.00;98853.44;4958661;28;20312;-89
2022/08/27 04:03:13;;;;;;;12.90;11.73;;;;;;;18.18;100.00;98864.00;4965011;28;20320;-90
2022/08/27 04:05:41;;;;;;;12.47;11.33;;;;;;;18.18;100.00;98861.28;4978334;28;20238;-90
2022/08/27 04:08:12;;;;;;;11.93;10.77;;;;;;;18.20;100.00;98871.81;4966091;28;20712;-88
2022/08/27 04:10:42;;;;;;;11.63;10.57;;;;;;;18.14;100.00;98868.38;4956238;28;20241;-89
2022/08/27 04:13:08;;;;;;;12.13;10.93;;;;;;;18.13;100.00;98863.22;4946447;28;20238;-87
2022/08/27 04:15:35;;;;;;;12.30;10.97;;;;;;;18.14;100.00;98864.84;4997067;28;20249;-90
2022/08/27 04:18:06;;;;;;;12.00;10.90;;;;;;;18.12;100.00;98867.03;4970436;28;20228;-90
2022/08/27 04:20:33;;;;;;;11.97;10.83;;;;;;;18.08;100.00;98868.69;4983705;28;20235;-88
2022/08/27 04:23:01;;;;;;;11.33;10.17;;;;;;;18.07;100.00;98867.91;4970053;28;20232;-88
2022/08/27 04:25:28;;;;;;;11.53;10.27;;;;;;;18.10;100.00;98869.25;4952687;28;20770;-89
2022/08/27 04:27:55;;;;;;;11.80;10.60;;;;;;;18.08;100.00;98863.28;4980975;28;20323;-89
2022/08/27 04:30:21;;;;;;;11.57;10.47;;;;;;;18.11;100.00;98866.22;4965527;28;20341;-86
2022/08/27 04:32:49;;;;;;;11.37;10.27;;;;;;;18.13;100.00;98864.03;4982739;28;20265;-87
2022/08/27 04:35:16;;;;;;;12.90;10.80;;;;;;;18.18;100.00;98871.31;4979943;28;20245;-87
2022/08/27 04:37:43;;;;;;;11.43;10.43;;;;;;;18.20;100.00;98869.09;4965007;28;20276;-87
2022/08/27 04:40:10;;;;;;;11.77;10.63;;;;;;;18.24;100.00;98878.31;4962772;28;20775;-87
2022/08/27 04:42:36;;;;;;;11.93;10.83;;;;;;;18.26;100.00;98879.63;4965435;28;20704;-87
2022/08/27 04:45:04;;;;;;;12.20;10.67;;;;;;;18.30;100.00;98877.94;4962362;28;20279;-87
2022/08/27 04:47:31;;;;;;;11.50;10.40;;;;;;;18.34;100.00;98884.41;5001588;28;20298;-88
2022/08/27 04:49:58;;;;;;;12.57;11.27;;;;;;;18.34;100.00;98889.03;4950233;28;20241;-87
2022/08/27 04:52:24;;;;;;;11.93;10.73;;;;;;;18.36;100.00;98889.56;4962051;28;20316;-87
2022/08/27 04:54:52;;;;;;;11.60;10.50;;;;;;;18.39;100.00;98891.69;4981198;28;20241;-87
2022/08/27 04:57:19;;;;;;;11.70;10.70;;;;;;;18.46;100.00;98892.16;4994285;28;20236;-86
2022/08/27 04:59:46;;;;;;;11.97;10.63;;;;;;;18.49;100.00;98897.81;4996998;28;20277;-87
2022/08/27 05:02:13;;;;;;;12.53;11.30;;;;;;;18.54;100.00;98901.59;4990109;28;20300;-87
2022/08/27 05:04:40;;;;;;;12.10;11.00;;;;;;;18.62;100.00;98900.94;4992173;28;20337;-87
2022/08/27 05:07:08;;;;;;;11.60;10.47;;;;;;;18.73;100.00;98910.59;4968302;28;20283;-87
2022/08/27 05:09:35;;;;;;;11.77;10.77;;;;;;;18.82;100.00;98912.38;4994876;28;20328;-88
2022/08/27 05:12:02;;;;;;;11.90;10.70;;;;;;;18.85;100.00;98917.19;4961063;28;20665;-86
2022/08/27 05:14:29;;;;;;;11.37;10.23;;;;;;;18.90;100.00;98914.44;4982083;28;20311;-87
2022/08/27 05:16:56;;;;;;;11.20;10.30;;;;;;;19.04;100.00;98922.66;5002116;28;20238;-86
2022/08/27 05:19:23;;;;;;;11.83;10.73;;;;;;;19.23;100.00;98909.09;4975408;28;20324;-87
2022/08/27 05:21:52;;;;;;;11.63;10.53;;;;;;;19.42;100.00;98907.19;4975577;28;20792;-88
2022/08/27 05:24:19;;;;;;;11.27;10.27;;;;;;;19.56;100.00;98918.97;4976985;28;20304;-86
2022/08/27 05:26:46;;;;;;;11.00;9.90;;;;;;;19.74;100.00;98912.69;4994160;28;20326;-87
2022/08/27 05:29:13;;;;;;;10.90;9.90;;;;;;;19.93;100.00;98923.53;4976946;28;20772;-87
2022/08/27 05:31:40;;;;;;;11.20;10.13;;;;;;;20.13;100.00;98923.19;4965914;28;20329;-86
2022/08/27 05:34:08;;;;;;;11.07;9.87;;;;;;;20.30;100.00;98919.91;4962846;28;20241;-86
2022/08/27 05:36:45;;;;;;;10.53;9.53;;;;;;;20.40;100.00;98916.19;4987829;28;20237;-86
2022/08/27 05:39:15;;;;;;;10.40;9.40;;;;;;;20.47;100.00;98920.16;4968290;28;20695;-87
2022/08/27 05:41:42;;;;;;;10.57;9.20;;;;;;;20.62;100.00;98917.13;4993845;28;20286;-87
2022/08/27 05:44:09;;;;;;;11.63;10.53;;;;;;;20.69;100.00;98919.44;4981019;28;20227;-86
2022/08/27 05:46:56;;;;;;;11.53;9.67;;;;;;;20.66;100.00;98917.34;4964202;28;20245;-86
2022/08/27 05:49:23;;;;;;;11.77;9.43;;;;;;;20.78;100.00;98923.06;4976688;28;20323;-87
2022/08/27 05:51:49;;;;;;;12.32;9.43;;;;;;;20.84;100.00;98921.88;4998693;28;20255;-87
2022/08/27 05:54:18;;;;;;;14.33;10.37;;;;;;;20.90;100.00;98919.84;4949892;28;21919;-86
2022/08/27 05:56:48;;;;;;;11.77;9.80;;;;;;;20.90;100.00;98917.13;4978866;28;20246;-86
2022/08/27 06:02:00;;;;;;;12.80;10.07;;;;;;;21.15;100.00;98921.25;4964109;28;20317;-86
2022/08/27 06:04:27;;;;;;;10.63;9.63;;;;;;;21.25;100.00;98924.56;4978121;28;20238;-82
2022/08/27 06:06:54;;;;;;;9.85;8.85;;;;;;;21.40;100.00;98921.50;4982529;28;20285;-86
2022/08/27 06:09:23;;;;;;;9.80;8.90;;;;;;;21.46;100.00;98930.38;4952354;28;20270;-86
2022/08/27 06:11:52;;;;;;;10.30;9.05;;;;;;;21.53;100.00;98928.00;4978460;28;20241;-86
2022/08/27 06:14:19;;;;;;;8.85;8.05;;;;;;;21.75;100.00;98941.66;4984775;28;20234;-86
2022/08/27 06:16:47;;;;;;;9.48;8.38;;;;;;;21.74;100.00;98936.53;4953438;28;20328;-86
2022/08/27 06:19:14;;;;;;;8.27;7.32;;;;;;;21.81;100.00;98936.88;4977901;28;20231;-86
2022/08/27 06:21:41;;;;;;;9.00;8.05;;;;;;;21.97;100.00;98932.72;4959872;28;20255;-86
2022/08/27 06:24:11;;;;;;;8.32;7.50;;;;;;;21.99;100.00;98935.91;4974665;28;20232;-87
2022/08/27 06:26:41;;;;;;;8.70;7.97;;;;;;;22.06;100.00;98935.50;4966260;28;20274;-85
2022/08/27 06:29:08;;;;;;;8.55;7.65;;;;;;;22.12;100.00;98940.50;4962236;28;20239;-85
2022/08/27 06:31:36;;;;;;;8.15;7.35;;;;;;;22.41;100.00;98937.28;4959872;28;20323;-86
2022/08/27 06:34:07;;;;;;;8.07;7.28;;;;;;;22.52;100.00;98935.09;4937645;28;20246;-86
2022/08/27 06:36:39;;;;;;;8.50;6.97;;;;;;;22.69;100.00;98941.44;4998178;28;20231;-87
2022/08/27 06:39:07;;;;;;;7.88;7.18;;;;;;;22.82;100.00;98937.00;4963292;28;20319;-85
2022/08/27 06:41:34;;;;;;;7.63;6.85;;;;;;;23.14;100.00;98935.81;4978279;28;20230;-86
2022/08/27 06:44:10;;;;;;;7.28;6.68;;;;;;;23.15;100.00;98937.41;4982093;28;20242;-86
2022/08/27 06:46:37;;;;;;;7.50;6.82;;;;;;;22.95;100.00;98938.84;4959603;28;20716;-86
2022/08/27 06:49:04;;;;;;;7.85;6.68;;;;;;;22.86;100.00;98940.75;4997267;28;20326;-86
2022/08/27 06:51:33;;;;;;;8.30;6.30;;;;;;;22.84;100.00;98942.97;4960920;28;20260;-85
2022/08/27 06:54:02;;;;;;;7.07;6.38;;;;;;;23.05;100.00;98937.75;4977189;28;20321;-86
2022/08/27 06:56:30;;;;;;;6.88;6.18;;;;;;;23.24;100.00;98941.78;4962332;28;20285;-86
2022/08/27 06:58:59;;;;;;;7.43;6.25;;;;;;;23.14;100.00;98941.28;4960737;28;20248;-86
2022/08/27 07:01:32;;;;;;;7.47;5.68;;;;;;;23.23;100.00;98945.66;4976912;28;20834;-86
2022/08/27 07:04:01;;;;;;;8.13;6.10;;;;;;;23.22;100.00;98941.31;4946845;28;20242;-86
2022/08/27 07:06:30;;;;;;;6.65;5.90;;;;;;;23.28;100.00;98947.44;4978603;28;20332;-85
2022/08/27 07:08:57;;;;;;;6.53;6.00;;;;;;;22.82;100.00;98946.00;4981900;28;20319;-86
2022/08/27 07:11:25;;;;;;;6.32;5.72;;;;;;;22.83;100.00;98953.09;4982951;28;20317;-84
2022/08/27 07:13:51;;;;;;;6.68;5.78;;;;;;;22.92;100.00;98960.50;4980526;28;20366;-86
2022/08/27 07:16:20;;;;;;;6.75;6.15;;;;;;;22.80;100.00;98963.84;4981286;28;20238;-86
2022/08/27 07:18:51;;;;;;;7.18;5.72;;;;;;;23.15;100.00;98959.28;4967404;28;20900;-86
2022/08/27 07:21:20;;;;;;;5.93;5.35;;;;;;;23.33;100.00;98958.19;4959641;28;20239;-85
2022/08/27 07:23:49;;;;;;;6.22;5.63;;;;;;;23.61;100.00;98959.53;4979078;28;20247;-85
2022/08/27 07:26:16;;;;;;;6.07;5.50;;;;;;;23.54;100.00;98952.94;4983392;28;20230;-86
2022/08/27 07:28:45;;;;;;;5.75;5.15;;;;;;;23.73;100.00;98956.16;4944443;28;20246;-85
2022/08/27 07:31:15;;;;;;;5.95;5.35;;;;;;;23.72;100.00;98965.50;4997970;28;20310;-86
2022/08/27 07:33:42;;;;;;;6.97;5.53;;;;;;;23.92;100.00;98961.31;4965079;28;20249;-85
2022/08/27 07:36:20;;;;;;;6.13;5.47;;;;;;;24.02;100.00;98953.56;4978613;28;20235;-86
2022/08/27 07:38:47;;;;;;;6.78;5.45;;;;;;;24.47;100.00;98951.25;4980860;28;20245;-85
2022/08/27 07:41:28;;;;;;;8.70;5.82;;;;;;;24.47;100.00;98953.16;4966068;28;20644;-86
2022/08/27 07:46:46;;;;;;;5.50;5.00;;;;;;;25.15;100.00;98960.28;4983740;28;20233;-85
2022/08/27 07:49:18;;;;;;;5.72;5.13;;;;;;;25.55;95.10;98957.97;4964250;28;20247;-85
2022/08/27 07:51:44;;;;;;;6.28;5.13;;;;;;;25.06;96.90;98954.06;5001505;28;20244;-85
2022/08/27 07:54:11;;;;;;;5.90;5.30;;;;;;;25.60;95.61;98962.47;4960370;28;20673;-84
2022/08/27 07:56:38;;;;;;;6.10;5.50;;;;;;;24.85;92.65;98958.66;4983811;28;20294;-84
2022/08/27 07:59:04;;;;;;;5.90;5.32;;;;;;;24.73;98.69;98953.09;4999722;28;20316;-83
2022/08/27 08:01:31;;;;;;;7.38;5.80;;;;;;;24.72;100.00;98954.22;4991834;28;20325;-85
2022/08/27 08:03:58;;;;;;;7.82;5.68;;;;;;;25.44;94.94;98957.53;4961825;28;20226;-84
2022/08/27 08:06:25;;;;;;;7.10;5.10;;;;;;;25.63;87.41;98959.03;4993443;28;20255;-84
2022/08/27 08:08:51;;;;;;;7.03;5.35;;;;;;;25.93;85.80;98963.31;4976831;28;20238;-84
2022/08/27 08:11:18;;;;;;;6.40;5.80;;;;;;;26.01;81.72;98954.19;4980772;28;20333;-84
2022/08/27 08:13:46;;;;;;;6.00;5.50;;;;;;;25.69;83.82;98963.19;4979903;28;20323;-84
2022/08/27 08:16:13;;;;;;;5.88;5.30;;;;;;;25.71;84.96;98956.22;4981157;28;20250;-84
2022/08/27 08:18:40;;;;;;;5.90;5.15;;;;;;;25.81;84.08;98955.81;4979648;28;20261;-84
2022/08/27 08:21:09;;;;;;;6.13;5.53;;;;;;;25.33;86.74;98948.09;4962223;28;20348;-83
2022/08/27 08:23:37;;;;;;;6.35;5.72;;;;;;;25.42;90.54;98948.84;4992569;28;20325;-82
2022/08/27 08:26:05;;;;;;;6.28;5.60;;;;;;;25.86;85.39;98954.81;4990580;28;20275;-84
2022/08/27 08:28:32;;;;;;;5.43;4.80;;;;;;;26.28;80.60;98952.81;4979423;28;20234;-84
2022/08/27 08:30:58;;;;;;;5.75;5.25;;;;;;;26.52;79.27;98946.56;4998630;28;20325;-84
2022/08/27 08:33:26;;;;;;;6.13;5.53;;;;;;;26.13;79.45;98948.72;4963520;28;20247;-84
2022/08/27 08:35:53;;;;;;;5.93;4.93;;;;;;;26.68;79.87;98953.03;4998056;28;20235;-85
2022/08/27 08:38:20;;;;;;;6.07;5.47;;;;;;;27.03;77.56;98945.94;4961499;28;20679;-84
2022/08/27 08:40:49;;;;;;;6.85;5.20;;;;;;;27.34;71.16;98950.81;4975339;28;20318;-84
2022/08/27 08:43:34;;;;;;;6.47;5.32;;;;;;;27.44;70.78;98947.59;4980201;28;20278;-84
2022/08/27 08:46:29;;;;;;;6.55;4.60;;;;;;;27.23;70.11;98944.22;4972798;28;20281;-84
2022/08/27 08:49:00;;;;;;;5.57;5.07;;;;;;;27.39;67.68;98938.81;4977249;28;20278;-85
2022/08/27 08:51:35;;;;;;;5.30;4.80;;;;;;;27.64;66.26;98942.31;4993255;28;20231;-84
2022/08/27 08:54:06;;;;;;;6.10;4.82;;;;;;;27.97;65.64;98938.19;4978123;28;20315;-84
2022/08/27 08:56:56;;;;;;;5.40;4.90;;;;;;;27.25;68.35;98946.63;4962073;28;20297;-85
2022/08/27 08:59:32;;;;;;;5.65;5.20;;;;;;;26.99;67.07;98941.47;4977040;28;20231;-85
2022/08/27 09:01:59;;;;;;;8.20;4.95;;;;;;;27.13;68.09;98934.50;4990491;28;20329;-86
2022/08/27 09:04:26;;;;;;;5.68;5.05;;;;;;;27.39;68.39;98936.84;4963885;28;20310;-85
2022/08/27 09:07:01;;;;;;;7.80;4.82;;;;;;;27.76;67.78;98948.59;4963082;28;20235;-85
2022/08/27 09:09:46;;;;;;;7.63;5.20;;;;;;;27.36;64.83;98934.78;4978336;28;20288;-85
2022/08/27 09:12:21;;;;;;;5.38;4.82;;;;;;;27.43;64.59;98932.28;4974715;28;20230;-82
2022/08/27 09:14:54;;;;;;;6.15;4.40;;;;;;;27.31;62.82;98929.53;4990483;28;20745;-86
2022/08/27 09:17:22;;;;;;;4.97;4.57;;;;;;;27.41;61.29;98928.25;4978504;28;20238;-86
2022/08/27 09:19:51;;;;;;;6.10;4.70;;;;;;;27.55;61.03;98923.19;4961889;28;20242;-84
2022/08/27 09:22:37;;;;;;;5.03;4.63;;;;;;;27.91;56.44;98927.75;4993996;28;20654;-84
2022/08/27 09:25:07;;;;;;;5.38;4.70;;;;;;;28.24;55.53;98922.00;4975561;28;20231;-87
2022/08/27 09:27:38;;;;;;;5.72;4.55;;;;;;;28.25;55.90;98927.16;4992385;28;20256;-86
2022/08/27 09:30:11;;;;;;;5.28;4.72;;;;;;;28.23;55.50;98914.91;4945621;28;20247;-85
2022/08/27 09:32:39;;;;;;;5.53;5.03;;;;;;;28.35;55.72;98915.63;4975719;28;20714;-85
2022/08/27 09:35:10;;;;;;;7.22;5.20;;;;;;;27.82;58.01;98916.09;4979491;28;20254;-85
2022/08/27 09:37:45;;;;;;;5.28;4.78;;;;;;;27.68;59.37;98924.75;4980312;28;20242;-85
2022/08/27 09:40:21;;;;;;;5.13;4.63;;;;;;;28.00;57.26;98915.44;4976568;28;20243;-85
2022/08/27 09:42:52;;;;;;;5.20;4.60;;;;;;;28.44;56.07;98918.22;4977193;28;20235;-85
2022/08/27 09:45:21;;;;;;;5.60;5.00;;;;;;;28.41;55.95;98914.22;4982894;28;20235;-85
2022/08/27 09:47:51;;;;;;;5.20;4.47;;;;;;;28.73;53.93;98911.50;4980494;28;20247;-85
2022/08/27 09:50:22;;;;;;;5.80;5.15;;;;;;;27.94;55.22;98908.63;4985794;28;20254;-86
2022/08/27 09:52:50;;;;;;;5.43;4.75;;;;;;;28.11;58.84;98898.44;4981235;28;20343;-85
2022/08/27 09:55:25;;;;;;;5.47;4.88;;;;;;;28.81;56.38;98902.22;4973836;28;20251;-83
2022/08/27 09:57:53;;;;;;;5.70;4.47;;;;;;;28.92;52.69;98906.06;4977379;28;20234;-84
2022/08/27 10:00:31;;;;;;;5.93;4.90;;;;;;;28.46;53.25;98902.91;4975755;28;20236;-85
2022/08/27 10:02:59;;;;;;;7.15;4.90;;;;;;;29.01;52.93;98906.66;4976286;28;20235;-84
2022/08/27 10:05:31;;;;;;;5.75;4.85;;;;;;;29.11;52.17;98902.53;4979861;28;20231;-84
2022/08/27 10:08:06;;;;;;;5.90;5.40;;;;;;;29.21;51.73;98896.44;4980310;28;20227;-84
2022/08/27 10:10:51;;;;;;;5.32;4.78;;;;;;;29.53;50.71;98895.22;4980006;28;20269;-85
2022/08/27 10:13:33;;;;;;;5.82;4.78;;;;;;;29.21;51.57;98901.97;4968391;28;20235;-84
2022/08/27 10:16:09;;;;;;;5.25;4.85;;;;;;;29.17;51.85;98896.38;4963564;28;20228;-84
2022/08/27 10:18:49;;;;;;;5.45;4.85;;;;;;;29.40;51.37;98884.66;4990949;28;20302;-84
2022/08/27 10:21:22;;;;;;;5.63;5.10;;;;;;;29.55;50.55;98892.09;4977082;28;20227;-85
2022/08/27 10:24:09;;;;;;;5.78;4.70;;;;;;;29.62;50.61;98895.81;4978448;28;20242;-84
2022/08/27 10:27:01;;;;;;;5.30;4.80;;;;;;;29.54;50.67;98902.31;4992850;28;20238;-84
2022/08/27 10:29:36;;;;;;;5.32;4.93;;;;;;;29.51;50.65;98891.22;4988427;28;20299;-84
2022/08/27 10:32:42;;;;;;;6.35;4.65;;;;;;;29.51;51.82;98894.78;4992915;28;20772;-84
2022/08/27 10:35:15;;;;;;;5.07;4.53;;;;;;;29.91;49.69;98904.69;4983166;28;20255;-84
2022/08/27 10:37:47;;;;;;;5.53;4.55;;;;;;;30.04;47.87;98892.31;4982220;28;20307;-84
2022/08/27 10:40:52;;;;;;;6.13;4.68;;;;;;;30.17;47.40;98894.53;4986283;28;20238;-84
2022/08/27 10:43:36;;;;;;;6.15;4.47;;;;;;;30.36;47.45;98890.13;4989147;28;20255;-84
2022/08/27 10:46:37;;;;;;;6.75;4.85;;;;;;;29.99;47.77;98882.38;4989591;28;20238;-85
2022/08/27 10:49:13;;;;;;;7.63;4.50;;;;;;;30.61;46.85;98883.88;4999998;28;20247;-85
2022/08/27 10:51:52;;;;;;;5.63;4.50;;;;;;;30.68;45.35;98876.88;4994953;28;20246;-84
2022/08/27 10:54:42;;;;;;;5.65;4.78;;;;;;;30.86;44.56;98881.50;4973259;28;20243;-84
2022/08/27 10:57:21;;;;;;;6.15;4.50;;;;;;;30.30;46.96;98875.00;4960563;28;20248;-84
2022/08/27 11:00:23;;;;;;;5.00;4.50;;;;;;;30.44;45.47;98875.25;4965933;28;20238;-85
2022/08/27 11:02:49;;;;;;;5.53;4.30;;;;;;;30.40;44.40;98877.97;4961015;28;20747;-83
2022/08/27 11:05:21;;;;;;;6.00;4.63;;;;;;;30.43;44.92;98873.66;4995337;28;20329;-85
2022/08/27 11:08:04;;;;;;;5.85;4.78;;;;;;;30.55;45.79;98874.31;4963585;28;20235;-81
2022/08/27 11:10:33;;;;;;;5.00;4.18;;;;;;;29.82;45.82;98862.66;4973565;28;20307;-83
2022/08/27 11:13:06;;;;;;;4.35;3.95;;;;;;;30.12;46.97;98863.66;4991088;28;20242;-83
2022/08/27 11:15:36;;;;;;;6.50;5.07;;;;;;;29.85;47.29;98861.94;4975940;28;20231;-83
2022/08/27 11:18:20;;;;;;;5.07;4.57;;;;;;;29.64;47.95;98857.59;4973441;28;20713;-83
2022/08/27 11:21:05;;;;;;;5.25;4.72;;;;;;;29.30;50.12;98852.97;4957283;28;20242;-83
2022/08/27 11:23:48;;;;;;;6.40;5.00;;;;;;;29.13;50.15;98859.66;4970747;28;20250;-83
2022/08/27 11:26:15;;;;;;;5.70;4.75;;;;;;;29.02;50.82;98855.06;4967222;28;20782;-86
2022/08/27 11:28:49;;;;;;;5.20;4.70;;;;;;;28.85;51.17;98861.75;4943709;28;20254;-85
2022/08/27 11:31:34;;;;;;;5.75;4.93;;;;;;;29.25;49.87;98853.22;4972367;28;20250;-85
2022/08/27 11:34:06;;;;;;;5.50;4.60;;;;;;;29.11;48.67;98861.19;4991560;28;20738;-85
2022/08/27 11:36:56;;;;;;;6.03;5.07;;;;;;;29.31;50.63;98844.31;4975561;28;20232;-86
2022/08/27 11:39:41;;;;;;;5.05;4.53;;;;;;;29.49;49.34;98843.88;4959661;28;20251;-85